createdAt,value
2023-05-19T00:04:49.233Z,1009.13
2023-05-19T00:10:35.005Z,1009.1
2023-05-19T00:16:20.464Z,1009.11
2023-05-19T00:22:05.632Z,1009.05
2023-05-19T00:27:51.583Z,1008.95
2023-05-19T00:33:36.404Z,1008.85
2023-05-19T00:39:21.209Z,1008.79
2023-05-19T00:45:06.697Z,1008.81
2023-05-19T00:50:52.124Z,1008.78
2023-05-19T00:56:36.876Z,1008.86
2023-05-19T01:02:25.349Z,1008.84
2023-05-19T01:08:17.695Z,1008.85
2023-05-19T01:14:02.664Z,1008.87
2023-05-19T01:19:54.296Z,1008.82
2023-05-19T01:25:49.169Z,1008.78
2023-05-19T01:31:34.961Z,1008.74
2023-05-19T01:37:20.971Z,1008.67
2023-05-19T01:43:07.761Z,1008.65
2023-05-19T01:48:53.584Z,1008.65
2023-05-19T01:54:40.365Z,1008.58
2023-05-19T02:00:31.606Z,1008.52
2023-05-19T02:06:24.018Z,1008.52
2023-05-19T02:12:12.316Z,1008.49
2023-05-19T02:17:58.781Z,1008.5
2023-05-19T02:23:43.945Z,1008.53
2023-05-19T02:29:28.845Z,1008.48
2023-05-19T02:35:13.949Z,1008.47
2023-05-19T02:40:58.862Z,1008.4
2023-05-19T02:46:43.980Z,1008.46
2023-05-19T02:52:29.287Z,1008.42
2023-05-19T02:58:14.882Z,1008.38
2023-05-19T03:03:59.937Z,1008.33
2023-05-19T03:09:46.135Z,1008.32
2023-05-19T03:15:31.052Z,1008.35
2023-05-19T03:21:16.912Z,1008.36
2023-05-19T03:27:02.866Z,1008.41
2023-05-19T03:32:48.109Z,1008.38
2023-05-19T03:38:33.233Z,1008.37
2023-05-19T03:44:17.904Z,1008.35
2023-05-19T03:50:02.798Z,1008.38
2023-05-19T03:55:48.497Z,1008.37
2023-05-19T04:01:33.571Z,1008.33
2023-05-19T04:07:18.266Z,1008.33
2023-05-19T04:13:03.269Z,1008.32
2023-05-19T04:18:48.231Z,1008.26
2023-05-19T04:24:33.315Z,1008.32
2023-05-19T04:30:19.808Z,1008.33
2023-05-19T04:36:05.094Z,1008.36
2023-05-19T04:41:50.002Z,1008.4
2023-05-19T04:47:34.799Z,1008.39
2023-05-19T04:53:19.825Z,1008.38
2023-05-19T04:59:04.702Z,1008.43
2023-05-19T05:04:49.649Z,1008.42
2023-05-19T05:10:34.912Z,1008.47
2023-05-19T05:16:20.222Z,1008.52
2023-05-19T05:22:05.583Z,1008.61
2023-05-19T05:27:50.540Z,1008.65
2023-05-19T05:33:35.625Z,1008.67
2023-05-19T05:39:20.741Z,1008.69
2023-05-19T05:45:05.909Z,1008.73
2023-05-19T05:50:52.096Z,1008.72
2023-05-19T05:56:37.385Z,1008.72
2023-05-19T06:02:22.384Z,1008.7
2023-05-19T06:08:07.777Z,1008.76
2023-05-19T06:13:52.662Z,1008.76
2023-05-19T06:19:37.758Z,1008.81
2023-05-19T06:25:22.654Z,1008.85
2023-05-19T06:31:07.779Z,1008.84
2023-05-19T06:36:52.973Z,1008.83
2023-05-19T06:42:37.697Z,1008.81
2023-05-19T06:48:22.424Z,1008.79
2023-05-19T06:54:07.547Z,1008.82
2023-05-19T06:59:52.680Z,1008.73
2023-05-19T07:05:37.770Z,1008.72
2023-05-19T07:11:22.491Z,1008.69
2023-05-19T07:17:07.435Z,1008.77
2023-05-19T07:22:52.184Z,1008.8
2023-05-19T07:28:38.173Z,1008.73
2023-05-19T07:34:25.762Z,1008.68
2023-05-19T07:40:11.149Z,1008.64
2023-05-19T07:45:56.008Z,1008.65
2023-05-19T07:51:40.981Z,1008.63
2023-05-19T07:57:25.772Z,1008.64
2023-05-19T08:03:11.171Z,1008.65
2023-05-19T08:08:56.582Z,1008.61
2023-05-19T08:14:41.475Z,1008.6
2023-05-19T08:20:26.422Z,1008.51
2023-05-19T08:26:11.361Z,1008.47
2023-05-19T08:31:56.370Z,1008.32
2023-05-19T08:37:41.360Z,1008.25
2023-05-19T08:43:26.180Z,1008.25
2023-05-19T08:49:12.727Z,1008.24
2023-05-19T08:55:01.857Z,1008.23
2023-05-19T09:00:47.207Z,1008.23
2023-05-19T09:06:32.039Z,1008.18
2023-05-19T09:12:16.876Z,1008.1
2023-05-19T09:18:12.195Z,1008.11
2023-05-19T09:23:57.268Z,1008.03
2023-05-19T09:29:42.229Z,1008.02
2023-05-19T09:35:27.182Z,1007.9
2023-05-19T09:41:12.066Z,1007.94
2023-05-19T09:46:57.225Z,1007.89
2023-05-19T09:52:44.659Z,1007.9
2023-05-19T09:58:32.121Z,1007.99
2023-05-19T10:04:17.013Z,1007.96
2023-05-19T10:10:02.277Z,1007.97
2023-05-19T10:15:58.566Z,1007.98
2023-05-19T10:21:44.344Z,1007.96
2023-05-19T10:27:30.083Z,1007.94
2023-05-19T10:33:17.858Z,1007.83
2023-05-19T10:39:06.214Z,1007.86
2023-05-19T10:44:54.863Z,1007.83
2023-05-19T10:50:40.882Z,1007.74
2023-05-19T10:56:34.938Z,1007.75
2023-05-19T11:02:30.731Z,1007.7
2023-05-19T11:08:15.696Z,1007.62
2023-05-19T11:14:01.136Z,1007.58
2023-05-19T11:19:50.980Z,1007.72
2023-05-19T11:25:46.880Z,1007.5
2023-05-19T11:31:32.156Z,1007.63
2023-05-19T11:37:17.120Z,1007.48
2023-05-19T11:43:02.137Z,1007.48
2023-05-19T11:48:47.705Z,1007.43
2023-05-19T11:54:35.962Z,1007.39
2023-05-19T12:00:23.308Z,1007.28
2023-05-19T12:06:08.654Z,1007.19
2023-05-19T12:11:53.289Z,1007.21
2023-05-19T12:17:38.278Z,1007.19
2023-05-19T12:23:23.079Z,1007.22
2023-05-19T12:29:09.442Z,1007.15
2023-05-19T12:34:56.940Z,1007.12
2023-05-19T12:40:41.823Z,1007.05
2023-05-19T12:46:26.750Z,1007
2023-05-19T12:52:14.669Z,1007.04
2023-05-19T12:57:59.810Z,1006.96
2023-05-19T13:03:45.239Z,1007
2023-05-19T13:09:30.520Z,1006.9
2023-05-19T13:15:15.926Z,1006.78
2023-05-19T13:21:00.796Z,1006.74
2023-05-19T13:26:46.490Z,1006.7
2023-05-19T13:32:31.339Z,1006.61
2023-05-19T13:38:16.314Z,1006.6
2023-05-19T13:44:02.015Z,1006.55
2023-05-19T13:49:46.833Z,1006.56
2023-05-19T13:55:31.778Z,1006.45
2023-05-19T14:01:16.898Z,1006.48
2023-05-19T14:07:01.963Z,1006.4
2023-05-19T14:13:14.442Z,1006.48
2023-05-19T14:18:51.909Z,1006.37
2023-05-19T14:24:36.832Z,1006.29
2023-05-19T14:30:21.913Z,1006.25
2023-05-19T14:36:07.234Z,1006.3
2023-05-19T14:41:51.890Z,1006.25
2023-05-19T14:47:36.930Z,1006.22
2023-05-19T14:53:21.813Z,1006.21
2023-05-19T14:59:07.517Z,1006.21
2023-05-19T15:04:52.604Z,1006.05
2023-05-19T15:10:37.557Z,1006.03
2023-05-19T15:16:22.343Z,1006.06
2023-05-19T15:22:09.923Z,1005.99
2023-05-19T15:27:55.585Z,1005.97
2023-05-19T15:33:40.694Z,1006.01
2023-05-19T15:39:25.615Z,1005.93
2023-05-19T15:45:11.313Z,1005.97
2023-05-19T15:50:56.505Z,1005.88
2023-05-19T15:56:41.516Z,1005.77
2023-05-19T16:02:26.709Z,1005.76
2023-05-19T16:08:11.745Z,1005.79
2023-05-19T16:13:56.756Z,1005.79
2023-05-19T16:19:41.605Z,1005.77
2023-05-19T16:25:26.458Z,1005.77
2023-05-19T16:31:11.532Z,1005.74
2023-05-19T16:36:56.534Z,1005.97
2023-05-19T16:42:42.429Z,1005.72
2023-05-19T16:48:27.357Z,1006.16
2023-05-19T16:54:12.290Z,1006.16
2023-05-19T16:59:57.164Z,1006.19
2023-05-19T17:05:42.010Z,1006.22
2023-05-19T17:11:26.645Z,1006.21
2023-05-19T17:17:11.843Z,1006.16
2023-05-19T17:22:57.618Z,1006.16
2023-05-19T17:28:44.427Z,1006.06
2023-05-19T17:34:29.797Z,1005.63
2023-05-19T17:40:15.214Z,1005.51
2023-05-19T17:46:02.210Z,1005.58
2023-05-19T17:51:48.179Z,1005.62
2023-05-19T17:57:34.311Z,1005.62
2023-05-19T18:03:19.769Z,1005.63
2023-05-19T18:09:06.964Z,1005.61
2023-05-19T18:14:51.583Z,1005.63
2023-05-19T18:20:37.125Z,1005.65
2023-05-19T18:26:22.108Z,1005.59
2023-05-19T18:32:07.514Z,1005.7
2023-05-19T18:37:55.501Z,1005.68
2023-05-19T18:43:40.426Z,1005.67
2023-05-19T18:49:26.432Z,1005.64
2023-05-19T18:55:11.761Z,1005.73
2023-05-19T19:01:00.005Z,1005.78
2023-05-19T19:06:45.272Z,1005.82
2023-05-19T19:12:30.068Z,1005.86
2023-05-19T19:18:15.053Z,1005.93
2023-05-19T19:24:00.172Z,1005.94
2023-05-19T19:29:45.075Z,1005.93
2023-05-19T19:35:30.078Z,1006
2023-05-19T19:41:14.880Z,1006.05
2023-05-19T19:46:59.847Z,1006.05
2023-05-19T19:52:44.703Z,1006.21
2023-05-19T19:58:30.064Z,1006.23
2023-05-19T20:04:15.206Z,1006.3
2023-05-19T20:10:00.474Z,1006.3
2023-05-19T20:15:45.951Z,1006.34
2023-05-19T20:21:30.987Z,1006.35
2023-05-19T20:27:15.965Z,1006.34
2023-05-19T20:33:00.881Z,1006.33
2023-05-19T20:38:46.947Z,1006.33
2023-05-19T20:44:31.652Z,1006.32
2023-05-19T20:50:16.385Z,1006.35
2023-05-19T20:56:01.301Z,1006.34
2023-05-19T21:01:46.883Z,1006.39
2023-05-19T21:07:32.021Z,1006.34
2023-05-19T21:13:16.796Z,1006.43
2023-05-19T21:19:02.153Z,1006.5
2023-05-19T21:24:47.184Z,1006.49
2023-05-19T21:30:32.844Z,1006.44
2023-05-19T21:36:18.311Z,1006.48
2023-05-19T21:42:03.136Z,1006.46
2023-05-19T21:47:47.836Z,1006.43
2023-05-19T21:53:32.714Z,1006.41
2023-05-19T21:59:17.727Z,1006.41
2023-05-19T22:05:02.920Z,1006.45
2023-05-19T22:10:49.475Z,1006.41
2023-05-19T22:16:35.391Z,1006.35
2023-05-19T22:22:20.401Z,1006.35
2023-05-19T22:28:05.389Z,1006.34
2023-05-19T22:33:51.499Z,1006.35
2023-05-19T22:39:36.494Z,1006.35
2023-05-19T22:45:21.596Z,1006.32
2023-05-19T22:51:06.535Z,1006.31
2023-05-19T22:56:51.327Z,1006.24
2023-05-19T23:02:36.353Z,1006.23
2023-05-19T23:08:21.248Z,1006.18
2023-05-19T23:14:08.397Z,1006.12
2023-05-19T23:19:56.167Z,1006.16
2023-05-19T23:25:41.512Z,1006.15
2023-05-19T23:31:26.706Z,1006.1
2023-05-19T23:37:11.686Z,1006.18
2023-05-19T23:42:56.457Z,1006.11
2023-05-19T23:48:41.370Z,1006.05
2023-05-19T23:54:26.125Z,1006.03
